sensor_id;sensor_type;location;lat;lon;timestamp;temperature;humidity
5248;DHT22;2644;52.420;13.580;2022-09-12T00:00:05;14.30;99.90
5248;DHT22;2644;52.420;13.580;2022-09-12T00:01:14;14.30;99.90
5248;DHT22;2644;52.420;13.580;2022-09-12T00:02:17;14.20;99.90
5248;DHT22;2644;52.420;13.580;2022-09-12T00:03:19;14.20;99.90
5248;DHT22;2644;52.420;13.580;2022-09-12T00:04:24;14.20;99.90
5248;DHT22;2644;52.420;13.580;2022-09-12T00:05:27;14.20;99.90
5248;DHT22;2644;52.420;13.580;2022-09-12T00:06:34;14.10;99.90
5248;DHT22;2644;52.420;13.580;2022-09-12T00:07:36;14.10;99.90
5248;DHT22;2644;52.420;13.580;2022-09-12T00:08:39;14.10;99.90
5248;DHT22;2644;52.420;13.580;2022-09-12T00:09:41;14.00;99.90
5248;DHT22;2644;52.420;13.580;2022-09-12T00:10:44;14.00;99.90
5248;DHT22;2644;52.420;13.580;2022-09-12T00:11:46;14.00;99.90
5248;DHT22;2644;52.420;13.580;2022-09-12T00:12:49;14.00;99.90
5248;DHT22;2644;52.420;13.580;2022-09-12T00:13:54;14.00;99.90
5248;DHT22;2644;52.420;13.580;2022-09-12T00:14:58;13.90;99.90
5248;DHT22;2644;52.420;13.580;2022-09-12T00:16:01;13.90;99.90
5248;DHT22;2644;52.420;13.580;2022-09-12T00:17:04;13.90;99.90
5248;DHT22;2644;52.420;13.580;2022-09-12T00:18:08;13.90;99.90
5248;DHT22;2644;52.420;13.580;2022-09-12T00:19:14;13.90;99.90
5248;DHT22;2644;52.420;13.580;2022-09-12T00:20:17;13.90;99.90
5248;DHT22;2644;52.420;13.580;2022-09-12T00:21:21;13.80;99.90
5248;DHT22;2644;52.420;13.580;2022-09-12T00:22:24;13.80;99.90
5248;DHT22;2644;52.420;13.580;2022-09-12T00:23:27;13.70;99.90
5248;DHT22;2644;52.420;13.580;2022-09-12T00:24:29;13.70;99.90
5248;DHT22;2644;52.420;13.580;2022-09-12T00:25:35;13.70;99.90
5248;DHT22;2644;52.420;13.580;2022-09-12T00:26:41;13.70;99.90
5248;DHT22;2644;52.420;13.580;2022-09-12T00:27:44;13.70;99.90
5248;DHT22;2644;52.420;13.580;2022-09-12T00:28:46;13.60;99.90
5248;DHT22;2644;52.420;13.580;2022-09-12T00:29:49;13.60;99.90
5248;DHT22;2644;52.420;13.580;2022-09-12T00:30:51;13.60;99.90
5248;DHT22;2644;52.420;13.580;2022-09-12T00:31:54;13.60;99.90
5248;DHT22;2644;52.420;13.580;2022-09-12T00:32:57;13.60;99.90
5248;DHT22;2644;52.420;13.580;2022-09-12T00:33:59;13.60;99.90
5248;DHT22;2644;52.420;13.580;2022-09-12T00:35:03;13.50;99.90
5248;DHT22;2644;52.420;13.580;2022-09-12T00:36:08;13.50;99.90
5248;DHT22;2644;52.420;13.580;2022-09-12T00:37:12;13.50;99.90
5248;DHT22;2644;52.420;13.580;2022-09-12T00:38:15;13.50;99.90
5248;DHT22;2644;52.420;13.580;2022-09-12T00:39:18;13.50;99.90
5248;DHT22;2644;52.420;13.580;2022-09-12T00:40:21;13.40;99.90
5248;DHT22;2644;52.420;13.580;2022-09-12T00:41:26;13.40;99.90
5248;DHT22;2644;52.420;13.580;2022-09-12T00:42:29;13.40;99.90
5248;DHT22;2644;52.420;13.580;2022-09-12T00:43:35;13.40;99.90
5248;DHT22;2644;52.420;13.580;2022-09-12T00:44:46;13.40;99.90
5248;DHT22;2644;52.420;13.580;2022-09-12T00:45:49;13.40;99.90
5248;DHT22;2644;52.420;13.580;2022-09-12T00:46:55;13.40;99.90
5248;DHT22;2644;52.420;13.580;2022-09-12T00:48:01;13.30;99.90
5248;DHT22;2644;52.420;13.580;2022-09-12T00:49:22;13.40;99.90
5248;DHT22;2644;52.420;13.580;2022-09-12T00:50:25;13.30;99.90
5248;DHT22;2644;52.420;13.580;2022-09-12T00:51:31;13.30;99.90
5248;DHT22;2644;52.420;13.580;2022-09-12T00:52:38;13.30;99.90
5248;DHT22;2644;52.420;13.580;2022-09-12T00:53:43;13.20;99.90
5248;DHT22;2644;52.420;13.580;2022-09-12T00:54:50;13.20;99.90
5248;DHT22;2644;52.420;13.580;2022-09-12T00:55:55;13.20;99.90
5248;DHT22;2644;52.420;13.580;2022-09-12T00:57:00;13.20;99.90
5248;DHT22;2644;52.420;13.580;2022-09-12T00:58:07;13.10;99.90
5248;DHT22;2644;52.420;13.580;2022-09-12T00:59:13;13.10;99.90
5248;DHT22;2644;52.420;13.580;2022-09-12T01:00:20;13.10;99.90
5248;DHT22;2644;52.420;13.580;2022-09-12T01:01:23;13.10;99.90
5248;DHT22;2644;52.420;13.580;2022-09-12T01:02:32;13.10;99.90
5248;DHT22;2644;52.420;13.580;2022-09-12T01:03:34;13.10;99.90
5248;DHT22;2644;52.420;13.580;2022-09-12T01:04:39;13.10;99.90
5248;DHT22;2644;52.420;13.580;2022-09-12T01:05:45;13.10;99.90
5248;DHT22;2644;52.420;13.580;2022-09-12T01:06:51;13.10;99.90
5248;DHT22;2644;52.420;13.580;2022-09-12T01:07:56;13.10;99.90
5248;DHT22;2644;52.420;13.580;2022-09-12T01:08:59;13.10;99.90
5248;DHT22;2644;52.420;13.580;2022-09-12T01:10:06;13.10;99.90
5248;DHT22;2644;52.420;13.580;2022-09-12T01:11:11;13.10;99.90
5248;DHT22;2644;52.420;13.580;2022-09-12T01:12:15;13.10;99.90
5248;DHT22;2644;52.420;13.580;2022-09-12T01:13:19;13.00;99.90
5248;DHT22;2644;52.420;13.580;2022-09-12T01:14:21;13.00;99.90
5248;DHT22;2644;52.420;13.580;2022-09-12T01:15:24;13.10;99.90
5248;DHT22;2644;52.420;13.580;2022-09-12T01:16:26;13.00;99.90
5248;DHT22;2644;52.420;13.580;2022-09-12T01:17:35;13.00;99.90
5248;DHT22;2644;52.420;13.580;2022-09-12T01:18:50;13.00;99.90
5248;DHT22;2644;52.420;13.580;2022-09-12T01:21:49;13.00;99.90
5248;DHT22;2644;52.420;13.580;2022-09-12T01:24:51;13.00;99.90
5248;DHT22;2644;52.420;13.580;2022-09-12T01:26:06;12.90;99.90
5248;DHT22;2644;52.420;13.580;2022-09-12T01:27:26;13.00;99.90
5248;DHT22;2644;52.420;13.580;2022-09-12T01:28:54;12.90;99.90
5248;DHT22;2644;52.420;13.580;2022-09-12T01:31:32;12.90;99.90
5248;DHT22;2644;52.420;13.580;2022-09-12T01:32:50;12.90;99.90
5248;DHT22;2644;52.420;13.580;2022-09-12T01:34:08;12.90;99.90
5248;DHT22;2644;52.420;13.580;2022-09-12T01:35:19;12.80;99.90
5248;DHT22;2644;52.420;13.580;2022-09-12T01:36:31;12.90;99.90
5248;DHT22;2644;52.420;13.580;2022-09-12T01:37:39;12.80;99.90
5248;DHT22;2644;52.420;13.580;2022-09-12T01:38:47;12.70;99.90
5248;DHT22;2644;52.420;13.580;2022-09-12T01:39:57;12.80;99.90
5248;DHT22;2644;52.420;13.580;2022-09-12T01:41:10;12.70;99.90
5248;DHT22;2644;52.420;13.580;2022-09-12T01:42:22;12.70;99.90
5248;DHT22;2644;52.420;13.580;2022-09-12T01:43:30;12.70;99.90
5248;DHT22;2644;52.420;13.580;2022-09-12T01:44:38;12.70;99.90
5248;DHT22;2644;52.420;13.580;2022-09-12T01:45:46;12.70;99.90
5248;DHT22;2644;52.420;13.580;2022-09-12T01:46:57;12.70;99.90
5248;DHT22;2644;52.420;13.580;2022-09-12T01:48:06;12.60;99.90
5248;DHT22;2644;52.420;13.580;2022-09-12T01:49:16;12.70;99.90
5248;DHT22;2644;52.420;13.580;2022-09-12T01:50:21;12.70;99.90
5248;DHT22;2644;52.420;13.580;2022-09-12T01:51:27;12.70;99.90
5248;DHT22;2644;52.420;13.580;2022-09-12T01:52:36;12.70;99.90
5248;DHT22;2644;52.420;13.580;2022-09-12T01:53:42;12.70;99.90
5248;DHT22;2644;52.420;13.580;2022-09-12T01:54:48;12.60;99.90
5248;DHT22;2644;52.420;13.580;2022-09-12T01:55:55;12.70;99.90
5248;DHT22;2644;52.420;13.580;2022-09-12T01:57:03;12.70;99.90
5248;DHT22;2644;52.420;13.580;2022-09-12T01:58:12;12.70;99.90
5248;DHT22;2644;52.420;13.580;2022-09-12T01:59:20;12.70;99.90
5248;DHT22;2644;52.420;13.580;2022-09-12T02:00:26;12.60;99.90
5248;DHT22;2644;52.420;13.580;2022-09-12T02:01:31;12.60;99.90
5248;DHT22;2644;52.420;13.580;2022-09-12T02:02:38;12.60;99.90
5248;DHT22;2644;52.420;13.580;2022-09-12T02:03:46;12.60;99.90
5248;DHT22;2644;52.420;13.580;2022-09-12T02:04:50;12.60;99.90
5248;DHT22;2644;52.420;13.580;2022-09-12T02:05:58;12.60;99.90
5248;DHT22;2644;52.420;13.580;2022-09-12T02:07:05;12.60;99.90
5248;DHT22;2644;52.420;13.580;2022-09-12T02:08:13;12.50;99.90
5248;DHT22;2644;52.420;13.580;2022-09-12T02:09:19;12.50;99.90
5248;DHT22;2644;52.420;13.580;2022-09-12T02:10:25;12.50;99.90
5248;DHT22;2644;52.420;13.580;2022-09-12T02:11:35;12.50;99.90
5248;DHT22;2644;52.420;13.580;2022-09-12T02:12:42;12.50;99.90
5248;DHT22;2644;52.420;13.580;2022-09-12T02:13:50;12.50;99.90
5248;DHT22;2644;52.420;13.580;2022-09-12T02:14:56;12.40;99.90
5248;DHT22;2644;52.420;13.580;2022-09-12T02:16:06;12.40;99.90
5248;DHT22;2644;52.420;13.580;2022-09-12T02:17:11;12.40;99.90
5248;DHT22;2644;52.420;13.580;2022-09-12T02:18:17;12.40;99.90
5248;DHT22;2644;52.420;13.580;2022-09-12T02:19:23;12.40;99.90
5248;DHT22;2644;52.420;13.580;2022-09-12T02:20:29;12.40;99.90
5248;DHT22;2644;52.420;13.580;2022-09-12T02:21:52;12.40;99.90
5248;DHT22;2644;52.420;13.580;2022-09-12T02:22:56;12.40;99.90
5248;DHT22;2644;52.420;13.580;2022-09-12T02:24:01;12.40;99.90
5248;DHT22;2644;52.420;13.580;2022-09-12T02:25:07;12.30;99.90
5248;DHT22;2644;52.420;13.580;2022-09-12T02:26:16;12.30;99.90
5248;DHT22;2644;52.420;13.580;2022-09-12T02:27:23;12.30;99.90
5248;DHT22;2644;52.420;13.580;2022-09-12T02:28:28;12.30;99.90
5248;DHT22;2644;52.420;13.580;2022-09-12T02:29:33;12.30;99.90
5248;DHT22;2644;52.420;13.580;2022-09-12T02:30:40;12.30;99.90
5248;DHT22;2644;52.420;13.580;2022-09-12T02:31:46;12.30;99.90
5248;DHT22;2644;52.420;13.580;2022-09-12T02:32:56;12.30;99.90
5248;DHT22;2644;52.420;13.580;2022-09-12T02:34:22;12.30;99.90
5248;DHT22;2644;52.420;13.580;2022-09-12T02:35:31;12.30;99.90
5248;DHT22;2644;52.420;13.580;2022-09-12T02:36:45;12.20;99.90
5248;DHT22;2644;52.420;13.580;2022-09-12T02:37:57;12.20;99.90
5248;DHT22;2644;52.420;13.580;2022-09-12T02:39:01;12.20;99.90
5248;DHT22;2644;52.420;13.580;2022-09-12T02:40:04;12.30;99.90
5248;DHT22;2644;52.420;13.580;2022-09-12T02:41:08;12.30;99.90
5248;DHT22;2644;52.420;13.580;2022-09-12T02:42:10;12.30;99.90
5248;DHT22;2644;52.420;13.580;2022-09-12T02:43:13;12.30;99.90
5248;DHT22;2644;52.420;13.580;2022-09-12T02:44:15;12.30;99.90
5248;DHT22;2644;52.420;13.580;2022-09-12T02:45:18;12.30;99.90
5248;DHT22;2644;52.420;13.580;2022-09-12T02:46:24;12.30;99.90
5248;DHT22;2644;52.420;13.580;2022-09-12T02:47:30;12.30;99.90
5248;DHT22;2644;52.420;13.580;2022-09-12T02:48:38;12.30;99.90
5248;DHT22;2644;52.420;13.580;2022-09-12T02:49:44;12.30;99.90
5248;DHT22;2644;52.420;13.580;2022-09-12T02:50:46;12.30;99.90
5248;DHT22;2644;52.420;13.580;2022-09-12T02:51:50;12.30;99.90
5248;DHT22;2644;52.420;13.580;2022-09-12T02:52:53;12.30;99.90
5248;DHT22;2644;52.420;13.580;2022-09-12T02:54:00;12.30;99.90
5248;DHT22;2644;52.420;13.580;2022-09-12T02:55:05;12.30;99.90
5248;DHT22;2644;52.420;13.580;2022-09-12T02:56:13;12.30;99.90
5248;DHT22;2644;52.420;13.580;2022-09-12T02:57:19;12.30;99.90
5248;DHT22;2644;52.420;13.580;2022-09-12T02:58:26;12.30;99.90
5248;DHT22;2644;52.420;13.580;2022-09-12T02:59:30;12.30;99.90
5248;DHT22;2644;52.420;13.580;2022-09-12T03:00:47;12.30;99.90
5248;DHT22;2644;52.420;13.580;2022-09-12T03:02:04;12.30;99.90
5248;DHT22;2644;52.420;13.580;2022-09-12T03:03:37;12.30;99.90
5248;DHT22;2644;52.420;13.580;2022-09-12T03:04:57;12.30;99.90
5248;DHT22;2644;52.420;13.580;2022-09-12T03:06:05;12.30;99.90
5248;DHT22;2644;52.420;13.580;2022-09-12T03:07:22;12.30;99.90
5248;DHT22;2644;52.420;13.580;2022-09-12T03:08:52;12.30;99.90
5248;DHT22;2644;52.420;13.580;2022-09-12T03:10:02;12.30;99.90
5248;DHT22;2644;52.420;13.580;2022-09-12T03:11:20;12.30;99.90
5248;DHT22;2644;52.420;13.580;2022-09-12T03:12:39;12.30;99.90
5248;DHT22;2644;52.420;13.580;2022-09-12T03:13:53;12.30;99.90
5248;DHT22;2644;52.420;13.580;2022-09-12T03:15:18;12.30;99.90
5248;DHT22;2644;52.420;13.580;2022-09-12T03:16:29;12.30;99.90
5248;DHT22;2644;52.420;13.580;2022-09-12T03:17:42;12.30;99.90
5248;DHT22;2644;52.420;13.580;2022-09-12T03:18:54;12.40;99.90
5248;DHT22;2644;52.420;13.580;2022-09-12T03:20:08;12.30;99.90
5248;DHT22;2644;52.420;13.580;2022-09-12T03:21:17;12.40;99.90
5248;DHT22;2644;52.420;13.580;2022-09-12T03:22:28;12.40;99.90
5248;DHT22;2644;52.420;13.580;2022-09-12T03:23:37;12.40;99.90
5248;DHT22;2644;52.420;13.580;2022-09-12T03:24:47;12.50;99.90
5248;DHT22;2644;52.420;13.580;2022-09-12T03:25:55;12.50;99.90
5248;DHT22;2644;52.420;13.580;2022-09-12T03:27:01;12.50;99.90
5248;DHT22;2644;52.420;13.580;2022-09-12T03:28:07;12.50;99.90
5248;DHT22;2644;52.420;13.580;2022-09-12T03:29:10;12.50;99.90
5248;DHT22;2644;52.420;13.580;2022-09-12T03:30:14;12.50;99.90
5248;DHT22;2644;52.420;13.580;2022-09-12T03:31:17;12.50;99.90
5248;DHT22;2644;52.420;13.580;2022-09-12T03:32:39;12.50;99.90
5248;DHT22;2644;52.420;13.580;2022-09-12T03:33:41;12.60;99.90
5248;DHT22;2644;52.420;13.580;2022-09-12T03:34:45;12.50;99.90
5248;DHT22;2644;52.420;13.580;2022-09-12T03:35:49;12.60;99.90
5248;DHT22;2644;52.420;13.580;2022-09-12T03:36:53;12.60;99.90
5248;DHT22;2644;52.420;13.580;2022-09-12T03:37:56;12.50;99.90
5248;DHT22;2644;52.420;13.580;2022-09-12T03:38:58;12.60;99.90
5248;DHT22;2644;52.420;13.580;2022-09-12T03:40:02;12.60;99.90
5248;DHT22;2644;52.420;13.580;2022-09-12T03:41:05;12.60;99.90
5248;DHT22;2644;52.420;13.580;2022-09-12T03:42:08;12.60;99.90
5248;DHT22;2644;52.420;13.580;2022-09-12T03:43:10;12.60;99.90
5248;DHT22;2644;52.420;13.580;2022-09-12T03:44:14;12.60;99.90
5248;DHT22;2644;52.420;13.580;2022-09-12T03:45:16;12.60;99.90
5248;DHT22;2644;52.420;13.580;2022-09-12T03:46:19;12.60;99.90
5248;DHT22;2644;52.420;13.580;2022-09-12T03:47:21;12.60;99.90
5248;DHT22;2644;52.420;13.580;2022-09-12T03:48:25;12.60;99.90
5248;DHT22;2644;52.420;13.580;2022-09-12T03:49:27;12.60;99.90
5248;DHT22;2644;52.420;13.580;2022-09-12T03:50:30;12.60;99.90
5248;DHT22;2644;52.420;13.580;2022-09-12T03:51:34;12.60;99.90
5248;DHT22;2644;52.420;13.580;2022-09-12T03:52:37;12.60;99.90
5248;DHT22;2644;52.420;13.580;2022-09-12T03:53:39;12.60;99.90
5248;DHT22;2644;52.420;13.580;2022-09-12T03:54:42;12.60;99.90
5248;DHT22;2644;52.420;13.580;2022-09-12T03:55:44;12.60;99.90
5248;DHT22;2644;52.420;13.580;2022-09-12T03:56:47;12.60;99.90
5248;DHT22;2644;52.420;13.580;2022-09-12T03:57:51;12.60;99.90
5248;DHT22;2644;52.420;13.580;2022-09-12T03:58:54;12.50;99.90
5248;DHT22;2644;52.420;13.580;2022-09-12T03:59:56;12.50;99.90
5248;DHT22;2644;52.420;13.580;2022-09-12T04:01:06;12.60;99.90
5248;DHT22;2644;52.420;13.580;2022-09-12T04:02:08;12.50;99.90
5248;DHT22;2644;52.420;13.580;2022-09-12T04:03:13;12.50;99.90
5248;DHT22;2644;52.420;13.580;2022-09-12T04:04:15;12.50;99.90
5248;DHT22;2644;52.420;13.580;2022-09-12T04:05:19;12.50;99.90
5248;DHT22;2644;52.420;13.580;2022-09-12T04:06:22;12.50;99.90
5248;DHT22;2644;52.420;13.580;2022-09-12T04:07:28;12.50;99.90
5248;DHT22;2644;52.420;13.580;2022-09-12T04:08:30;12.50;99.90
5248;DHT22;2644;52.420;13.580;2022-09-12T04:09:33;12.50;99.90
5248;DHT22;2644;52.420;13.580;2022-09-12T04:10:35;12.40;99.90
5248;DHT22;2644;52.420;13.580;2022-09-12T04:11:38;12.40;99.90
5248;DHT22;2644;52.420;13.580;2022-09-12T04:12:40;12.40;99.90
5248;DHT22;2644;52.420;13.580;2022-09-12T04:13:44;12.40;99.90
5248;DHT22;2644;52.420;13.580;2022-09-12T04:14:47;12.30;99.90
5248;DHT22;2644;52.420;13.580;2022-09-12T04:15:55;12.30;99.90
5248;DHT22;2644;52.420;13.580;2022-09-12T04:16:57;12.30;99.90
5248;DHT22;2644;52.420;13.580;2022-09-12T04:18:00;12.30;99.90
5248;DHT22;2644;52.420;13.580;2022-09-12T04:19:06;12.30;99.90
5248;DHT22;2644;52.420;13.580;2022-09-12T04:20:09;12.30;99.90
5248;DHT22;2644;52.420;13.580;2022-09-12T04:21:13;12.20;99.90
5248;DHT22;2644;52.420;13.580;2022-09-12T04:22:17;12.20;99.90
5248;DHT22;2644;52.420;13.580;2022-09-12T04:23:20;12.20;99.90
5248;DHT22;2644;52.420;13.580;2022-09-12T04:24:23;12.20;99.90
5248;DHT22;2644;52.420;13.580;2022-09-12T04:25:25;12.20;99.90
5248;DHT22;2644;52.420;13.580;2022-09-12T04:26:29;12.20;99.90
5248;DHT22;2644;52.420;13.580;2022-09-12T04:27:32;12.10;99.90
5248;DHT22;2644;52.420;13.580;2022-09-12T04:28:36;12.10;99.90
5248;DHT22;2644;52.420;13.580;2022-09-12T04:29:39;12.10;99.90
5248;DHT22;2644;52.420;13.580;2022-09-12T04:30:41;12.10;99.90
5248;DHT22;2644;52.420;13.580;2022-09-12T04:31:44;12.10;99.90
5248;DHT22;2644;52.420;13.580;2022-09-12T04:32:47;12.10;99.90
5248;DHT22;2644;52.420;13.580;2022-09-12T04:33:52;12.10;99.90
5248;DHT22;2644;52.420;13.580;2022-09-12T04:34:56;12.10;99.90
5248;DHT22;2644;52.420;13.580;2022-09-12T04:36:02;12.10;99.90
5248;DHT22;2644;52.420;13.580;2022-09-12T04:37:05;12.10;99.90
5248;DHT22;2644;52.420;13.580;2022-09-12T04:38:08;12.10;99.90
5248;DHT22;2644;52.420;13.580;2022-09-12T04:39:11;12.10;99.90
5248;DHT22;2644;52.420;13.580;2022-09-12T04:40:14;12.10;99.90
5248;DHT22;2644;52.420;13.580;2022-09-12T04:41:19;12.20;99.90
5248;DHT22;2644;52.420;13.580;2022-09-12T04:42:23;12.10;99.90
5248;DHT22;2644;52.420;13.580;2022-09-12T04:43:25;12.10;99.90
5248;DHT22;2644;52.420;13.580;2022-09-12T04:44:28;12.10;99.90
5248;DHT22;2644;52.420;13.580;2022-09-12T04:45:30;12.10;99.90
5248;DHT22;2644;52.420;13.580;2022-09-12T04:46:46;12.10;99.90
5248;DHT22;2644;52.420;13.580;2022-09-12T04:47:49;12.10;99.90
5248;DHT22;2644;52.420;13.580;2022-09-12T04:48:51;12.10;99.90
5248;DHT22;2644;52.420;13.580;2022-09-12T04:49:57;12.10;99.90
5248;DHT22;2644;52.420;13.580;2022-09-12T04:51:08;12.10;99.90
5248;DHT22;2644;52.420;13.580;2022-09-12T04:52:11;12.10;99.90
5248;DHT22;2644;52.420;13.580;2022-09-12T04:53:25;12.10;99.90
5248;DHT22;2644;52.420;13.580;2022-09-12T04:54:29;12.10;99.90
5248;DHT22;2644;52.420;13.580;2022-09-12T04:55:33;12.10;99.90
5248;DHT22;2644;52.420;13.580;2022-09-12T04:56:38;12.20;99.90
5248;DHT22;2644;52.420;13.580;2022-09-12T04:57:40;12.10;99.90
5248;DHT22;2644;52.420;13.580;2022-09-12T04:58:44;12.10;99.90
5248;DHT22;2644;52.420;13.580;2022-09-12T04:59:46;12.10;99.90
5248;DHT22;2644;52.420;13.580;2022-09-12T05:00:49;12.10;99.90
5248;DHT22;2644;52.420;13.580;2022-09-12T05:01:51;12.10;99.90
5248;DHT22;2644;52.420;13.580;2022-09-12T05:02:54;12.10;99.90
5248;DHT22;2644;52.420;13.580;2022-09-12T05:03:57;12.10;99.90
5248;DHT22;2644;52.420;13.580;2022-09-12T05:05:00;12.20;99.90
5248;DHT22;2644;52.420;13.580;2022-09-12T05:06:04;12.20;99.90
5248;DHT22;2644;52.420;13.580;2022-09-12T05:07:07;12.20;99.90
5248;DHT22;2644;52.420;13.580;2022-09-12T05:08:09;12.20;99.90
5248;DHT22;2644;52.420;13.580;2022-09-12T05:09:13;12.20;99.90
5248;DHT22;2644;52.420;13.580;2022-09-12T05:10:16;12.20;99.90
5248;DHT22;2644;52.420;13.580;2022-09-12T05:11:22;12.20;99.90
5248;DHT22;2644;52.420;13.580;2022-09-12T05:12:31;12.20;99.90
5248;DHT22;2644;52.420;13.580;2022-09-12T05:13:34;12.20;99.90
5248;DHT22;2644;52.420;13.580;2022-09-12T05:14:36;12.20;99.90
5248;DHT22;2644;52.420;13.580;2022-09-12T05:15:39;12.20;99.90
5248;DHT22;2644;52.420;13.580;2022-09-12T05:16:41;12.20;99.90
5248;DHT22;2644;52.420;13.580;2022-09-12T05:17:49;12.20;99.90
5248;DHT22;2644;52.420;13.580;2022-09-12T05:18:54;12.20;99.90
5248;DHT22;2644;52.420;13.580;2022-09-12T05:19:56;12.20;99.90
5248;DHT22;2644;52.420;13.580;2022-09-12T05:21:00;12.30;99.90
5248;DHT22;2644;52.420;13.580;2022-09-12T05:22:03;12.40;99.90
5248;DHT22;2644;52.420;13.580;2022-09-12T05:23:07;12.40;99.90
5248;DHT22;2644;52.420;13.580;2022-09-12T05:24:10;12.40;99.90
5248;DHT22;2644;52.420;13.580;2022-09-12T05:25:13;12.50;99.90
5248;DHT22;2644;52.420;13.580;2022-09-12T05:26:16;12.50;99.90
5248;DHT22;2644;52.420;13.580;2022-09-12T05:27:21;12.40;99.90
5248;DHT22;2644;52.420;13.580;2022-09-12T05:28:24;12.50;99.90
5248;DHT22;2644;52.420;13.580;2022-09-12T05:29:30;12.50;99.90
5248;DHT22;2644;52.420;13.580;2022-09-12T05:30:33;12.50;99.90
5248;DHT22;2644;52.420;13.580;2022-09-12T05:31:36;12.50;99.90
5248;DHT22;2644;52.420;13.580;2022-09-12T05:32:38;12.50;99.90
5248;DHT22;2644;52.420;13.580;2022-09-12T05:33:42;12.50;99.90
5248;DHT22;2644;52.420;13.580;2022-09-12T05:34:47;12.50;99.90
5248;DHT22;2644;52.420;13.580;2022-09-12T05:35:50;12.50;99.90
5248;DHT22;2644;52.420;13.580;2022-09-12T05:36:52;12.60;99.90
5248;DHT22;2644;52.420;13.580;2022-09-12T05:37:56;12.60;99.90
5248;DHT22;2644;52.420;13.580;2022-09-12T05:38:59;12.60;99.90
5248;DHT22;2644;52.420;13.580;2022-09-12T05:40:03;12.60;99.90
5248;DHT22;2644;52.420;13.580;2022-09-12T05:41:09;12.70;99.90
5248;DHT22;2644;52.420;13.580;2022-09-12T05:42:21;12.70;99.90
5248;DHT22;2644;52.420;13.580;2022-09-12T05:43:24;12.70;99.90
5248;DHT22;2644;52.420;13.580;2022-09-12T05:44:26;12.70;99.90
5248;DHT22;2644;52.420;13.580;2022-09-12T05:45:30;12.70;99.90
5248;DHT22;2644;52.420;13.580;2022-09-12T05:46:36;12.70;99.90
5248;DHT22;2644;52.420;13.580;2022-09-12T05:47:39;12.70;99.90
5248;DHT22;2644;52.420;13.580;2022-09-12T05:48:44;12.80;99.90
5248;DHT22;2644;52.420;13.580;2022-09-12T05:49:47;12.80;99.90
5248;DHT22;2644;52.420;13.580;2022-09-12T05:50:51;12.80;99.90
5248;DHT22;2644;52.420;13.580;2022-09-12T05:51:53;12.80;99.90
5248;DHT22;2644;52.420;13.580;2022-09-12T05:52:57;12.90;99.90
5248;DHT22;2644;52.420;13.580;2022-09-12T05:54:00;12.90;99.90
5248;DHT22;2644;52.420;13.580;2022-09-12T05:55:04;12.90;99.90
5248;DHT22;2644;52.420;13.580;2022-09-12T05:56:09;12.90;99.90
5248;DHT22;2644;52.420;13.580;2022-09-12T05:57:13;13.00;99.90
5248;DHT22;2644;52.420;13.580;2022-09-12T05:58:16;13.00;99.90
5248;DHT22;2644;52.420;13.580;2022-09-12T05:59:20;13.00;99.90
5248;DHT22;2644;52.420;13.580;2022-09-12T06:00:25;13.00;99.90
5248;DHT22;2644;52.420;13.580;2022-09-12T06:01:43;13.00;99.90
5248;DHT22;2644;52.420;13.580;2022-09-12T06:02:50;13.10;99.90
5248;DHT22;2644;52.420;13.580;2022-09-12T06:03:55;13.10;99.90
5248;DHT22;2644;52.420;13.580;2022-09-12T06:04:58;13.10;99.90
5248;DHT22;2644;52.420;13.580;2022-09-12T06:06:02;13.20;99.90
5248;DHT22;2644;52.420;13.580;2022-09-12T06:07:05;13.20;99.90
5248;DHT22;2644;52.420;13.580;2022-09-12T06:08:08;13.30;99.90
5248;DHT22;2644;52.420;13.580;2022-09-12T06:09:12;13.30;99.90
5248;DHT22;2644;52.420;13.580;2022-09-12T06:10:16;13.30;99.90
5248;DHT22;2644;52.420;13.580;2022-09-12T06:11:20;13.40;99.90
5248;DHT22;2644;52.420;13.580;2022-09-12T06:12:24;13.40;99.90
5248;DHT22;2644;52.420;13.580;2022-09-12T06:13:32;13.50;99.90
5248;DHT22;2644;52.420;13.580;2022-09-12T06:14:35;13.50;99.90
5248;DHT22;2644;52.420;13.580;2022-09-12T06:15:38;13.60;99.90
5248;DHT22;2644;52.420;13.580;2022-09-12T06:16:40;13.60;99.90
5248;DHT22;2644;52.420;13.580;2022-09-12T06:17:43;13.60;99.90
5248;DHT22;2644;52.420;13.580;2022-09-12T06:18:53;13.70;99.90
5248;DHT22;2644;52.420;13.580;2022-09-12T06:19:56;13.80;99.90
5248;DHT22;2644;52.420;13.580;2022-09-12T06:21:02;13.90;99.90
5248;DHT22;2644;52.420;13.580;2022-09-12T06:22:05;14.00;99.90
5248;DHT22;2644;52.420;13.580;2022-09-12T06:23:08;14.10;99.90
5248;DHT22;2644;52.420;13.580;2022-09-12T06:24:10;14.40;99.90
5248;DHT22;2644;52.420;13.580;2022-09-12T06:25:13;14.60;99.90
5248;DHT22;2644;52.420;13.580;2022-09-12T06:26:16;14.90;99.90
5248;DHT22;2644;52.420;13.580;2022-09-12T06:27:22;15.20;99.90
5248;DHT22;2644;52.420;13.580;2022-09-12T06:28:25;15.50;99.90
5248;DHT22;2644;52.420;13.580;2022-09-12T06:29:29;15.80;99.90
5248;DHT22;2644;52.420;13.580;2022-09-12T06:30:34;15.90;99.90
5248;DHT22;2644;52.420;13.580;2022-09-12T06:31:37;16.10;99.90
5248;DHT22;2644;52.420;13.580;2022-09-12T06:32:42;16.20;99.90
5248;DHT22;2644;52.420;13.580;2022-09-12T06:33:45;16.20;99.90
5248;DHT22;2644;52.420;13.580;2022-09-12T06:34:48;16.30;99.90
5248;DHT22;2644;52.420;13.580;2022-09-12T06:35:51;16.40;99.90
5248;DHT22;2644;52.420;13.580;2022-09-12T06:36:54;16.50;99.90
5248;DHT22;2644;52.420;13.580;2022-09-12T06:37:58;16.60;99.90
5248;DHT22;2644;52.420;13.580;2022-09-12T06:39:03;16.80;99.90
5248;DHT22;2644;52.420;13.580;2022-09-12T06:40:07;16.90;99.90
5248;DHT22;2644;52.420;13.580;2022-09-12T06:41:10;17.30;99.90
5248;DHT22;2644;52.420;13.580;2022-09-12T06:42:14;17.60;99.90
5248;DHT22;2644;52.420;13.580;2022-09-12T06:43:27;17.90;99.90
5248;DHT22;2644;52.420;13.580;2022-09-12T06:44:31;18.30;99.90
5248;DHT22;2644;52.420;13.580;2022-09-12T06:45:34;18.60;99.90
5248;DHT22;2644;52.420;13.580;2022-09-12T06:46:37;18.90;99.90
5248;DHT22;2644;52.420;13.580;2022-09-12T06:47:39;19.20;99.90
5248;DHT22;2644;52.420;13.580;2022-09-12T06:48:42;19.40;99.90
5248;DHT22;2644;52.420;13.580;2022-09-12T06:49:44;19.70;99.90
5248;DHT22;2644;52.420;13.580;2022-09-12T06:50:54;20.00;99.90
5248;DHT22;2644;52.420;13.580;2022-09-12T06:51:57;20.20;99.90
5248;DHT22;2644;52.420;13.580;2022-09-12T06:53:00;20.40;99.90
5248;DHT22;2644;52.420;13.580;2022-09-12T06:54:03;20.80;99.90
5248;DHT22;2644;52.420;13.580;2022-09-12T06:55:07;21.00;99.90
5248;DHT22;2644;52.420;13.580;2022-09-12T06:56:11;21.10;99.90
5248;DHT22;2644;52.420;13.580;2022-09-12T06:57:14;21.30;99.90
5248;DHT22;2644;52.420;13.580;2022-09-12T06:58:17;21.40;99.90
5248;DHT22;2644;52.420;13.580;2022-09-12T06:59:19;21.60;99.90
5248;DHT22;2644;52.420;13.580;2022-09-12T07:00:24;21.70;99.90
5248;DHT22;2644;52.420;13.580;2022-09-12T07:01:27;21.80;99.90
5248;DHT22;2644;52.420;13.580;2022-09-12T07:02:30;22.10;99.90
5248;DHT22;2644;52.420;13.580;2022-09-12T07:03:33;22.40;99.90
5248;DHT22;2644;52.420;13.580;2022-09-12T07:04:37;22.50;99.90
5248;DHT22;2644;52.420;13.580;2022-09-12T07:05:39;22.50;99.90